Hikone, Japan

6:55 AM JST on July 24, 2016 (GMT +0900)
Nagoya / Chubu | | Change Station

Elev 16 ft 34.86 °N, 136.81 °E | Updated 25 minutes ago

Scattered Clouds
Scattered Clouds
73 °F
Feels Like 73 °F
N
6
Wind Variable Wind from South

Today
High -- | Low -- °F
--% Chance of Precip.
Yesterday
High -- | Low -- °F
Precip. -- in
Pressure 29.95 in
Visibility 6.2 miles
Clouds Few 1300 ft
Scattered Clouds 2500 ft
Dew Point 68 °F
Humidity 83%
Rainfall 0.00 in
Snow Depth Not available.
4:57 AM 7:04 PM
Waning Gibbous, 82% visible
METAR RJGG 232130Z 18005KT 9999 FEW013 SCT025 BKN/// 23/20 Q1014 NOSIG
Pressure 29.95 in
Visibility 6.2 miles
Clouds Few 1300 ft
Scattered Clouds 2500 ft
Dew Point 68 °F
Humidity 83%
Rainfall 0.00 in
Snow Depth Not available.
4:57 AM 7:04 PM
Waning Gibbous, 82% visible
METAR RJGG 232130Z 18005KT 9999 FEW013 SCT025 BKN/// 23/20 Q1014 NOSIG

10-Day Weather Forecast

No radar image for this location.
×

Almanac

Astronomy

Jul. 24, 2016 Rise Set
Actual Time
Civil Twilight
Nautical Twilight
Astronomical Twilight
Moon
Length of Visible Light
Length of Day
Tomorrow will be .
, % of the Moon is Illuminated

Today's Extremes

Country Highs Country Lows

Community

WunderPhotos

Upload Photos

1,926,934 photos uploaded!

WunderBlog® & News

Nearby

Air Quality

  Air Quality AQ Index Pollutant
Not available.

Snow Depth

Station Depth Elevation

Earthquake Activity

City Distance Mag. Time & Date
Minimum magnitude displayed is 2.5.

Coastal Water Temperatures

Place Temperature

Stations

Nearby Weather Stations

Station Location Temp. Windchill Dew Point Humidity Wind Precip. Elev Updated Type